地図

経路データ

SID SEASON NUMBER BASIN SUBBASIN NAME ISO_TIME NATURE LAT LON WMO_WIND WMO_PRES WMO_AGENCY TRACK_TYPE DIST2LAND LANDFALL IFLAG USA_AGENCY USA_ATCF_ID USA_LAT USA_LON USA_RECORD USA_STATUS USA_WIND USA_PRES USA_SSHS USA_R34_NE USA_R34_SE USA_R34_SW USA_R34_NW USA_R50_NE USA_R50_SE USA_R50_SW USA_R50_NW USA_R64_NE USA_R64_SE USA_R64_SW USA_R64_NW USA_POCI USA_ROCI USA_RMW USA_EYE TOKYO_LAT TOKYO_LON TOKYO_GRADE TOKYO_WIND TOKYO_PRES TOKYO_R50_DIR TOKYO_R50_LONG TOKYO_R50_SHORT TOKYO_R30_DIR TOKYO_R30_LONG TOKYO_R30_SHORT TOKYO_LAND CMA_LAT CMA_LON CMA_CAT CMA_WIND CMA_PRES HKO_LAT HKO_LON HKO_CAT HKO_WIND HKO_PRES NEWDELHI_LAT NEWDELHI_LON NEWDELHI_GRADE NEWDELHI_WIND NEWDELHI_PRES NEWDELHI_CI NEWDELHI_DP NEWDELHI_POCI REUNION_LAT REUNION_LON REUNION_TYPE REUNION_WIND REUNION_PRES REUNION_TNUM REUNION_CI REUNION_RMW REUNION_R34_NE REUNION_R34_SE REUNION_R34_SW REUNION_R34_NW REUNION_R50_NE REUNION_R50_SE REUNION_R50_SW REUNION_R50_NW REUNION_R64_NE REUNION_R64_SE REUNION_R64_SW REUNION_R64_NW BOM_LAT BOM_LON BOM_TYPE BOM_WIND BOM_PRES BOM_TNUM BOM_CI BOM_RMW BOM_R34_NE BOM_R34_SE BOM_R34_SW BOM_R34_NW BOM_R50_NE BOM_R50_SE BOM_R50_SW BOM_R50_NW BOM_R64_NE BOM_R64_SE BOM_R64_SW BOM_R64_NW BOM_ROCI BOM_POCI BOM_EYE BOM_POS_METHOD BOM_PRES_METHOD NADI_LAT NADI_LON NADI_CAT NADI_WIND NADI_PRES WELLINGTON_LAT WELLINGTON_LON WELLINGTON_WIND WELLINGTON_PRES DS824_LAT DS824_LON DS824_STAGE DS824_WIND DS824_PRES TD9636_LAT TD9636_LON TD9636_STAGE TD9636_WIND TD9636_PRES TD9635_LAT TD9635_LON TD9635_WIND TD9635_PRES TD9635_ROCI NEUMANN_LAT NEUMANN_LON NEUMANN_CLASS NEUMANN_WIND NEUMANN_PRES MLC_LAT MLC_LON MLC_CLASS MLC_WIND MLC_PRES USA_GUST BOM_GUST BOM_GUST_PER REUNION_GUST REUNION_GUST_PER USA_SEAHGT USA_SEARAD_NE USA_SEARAD_SE USA_SEARAD_SW USA_SEARAD_NW STORM_SPEED STORM_DIR
1993134N04160 1993 30 WP MM JACK 1993-05-14 06:00:00 NR 4.40000 159.600 main 1198 1198 O_____________ jtwc_wp WP051993 4.40000 159.600 15 -1 3 316
1993134N04160 1993 30 WP MM JACK 1993-05-14 09:00:00 NR 4.49000 159.510 main 1200 1200 P_____________ WP051993 4.49000 159.510 15 -1 3 315
1993134N04160 1993 30 WP MM JACK 1993-05-14 12:00:00 NR 4.60000 159.400 main 1202 1202 O_____________ jtwc_wp WP051993 4.60000 159.400 15 -1 4 315
1993134N04160 1993 30 WP MM JACK 1993-05-14 15:00:00 NR 4.74250 159.258 main 1204 1204 P_____________ WP051993 4.74250 159.258 15 -1 4 315
1993134N04160 1993 30 WP MM JACK 1993-05-14 18:00:00 NR 4.90000 159.100 main 1209 1203 O_____________ jtwc_wp WP051993 4.90000 159.100 15 -1 4 314
1993134N04160 1993 30 WP MM JACK 1993-05-14 21:00:00 NR 5.03500 158.950 main 1212 1205 P_____________ WP051993 5.03500 158.950 15 -1 4 315
1993134N04160 1993 30 WP MM JACK 1993-05-15 00:00:00 NR 5.20000 158.800 main 1216 1216 O_____________ jtwc_wp WP051993 5.20000 158.800 15 -1 5 322
1993134N04160 1993 30 WP MM JACK 1993-05-15 03:00:00 NR 5.42000 158.650 main 1227 1220 P_____________ WP051993 5.42000 158.650 17 -1 6 329
1993134N04160 1993 30 WP MM JACK 1993-05-15 06:00:00 NR 5.70000 158.500 main 1240 1240 O_____________ jtwc_wp WP051993 5.70000 158.500 20 -1 7 333
1993134N04160 1993 30 WP MM JACK 1993-05-15 09:00:00 NR 6.02750 158.342 main 1255 1255 P_____________ WP051993 6.02750 158.342 20 -1 8 337
1993134N04160 1993 30 WP MM JACK 1993-05-15 12:00:00 NR 6.40000 158.200 main 1287 1287 O_____________ jtwc_wp WP051993 6.40000 158.200 20 -1 8 341
1993134N04160 1993 30 WP MM JACK 1993-05-15 15:00:00 NR 6.79250 158.085 main 1319 1319 P_____________ WP051993 6.79250 158.085 20 -1 8 346
1993134N04160 1993 30 WP MM JACK 1993-05-15 18:00:00 NR 7.20000 158.000 main 1351 1351 O_____________ jtwc_wp WP051993 7.20000 158.000 20 -1 8 349
1993134N04160 1993 30 WP MM JACK 1993-05-15 21:00:00 NR 7.60000 157.935 main 1384 1384 P_____________ WP051993 7.60000 157.935 20 -1 8 353
1993134N04160 1993 30 WP MM JACK 1993-05-16 00:00:00 NR 8.00000 157.900 main 1422 1422 O_____________ jtwc_wp WP051993 8.00000 157.900 20 -1 8 356
1993134N04160 1993 30 WP MM JACK 1993-05-16 03:00:00 NR 8.38500 157.878 main 1461 1461 P_____________ WP051993 8.38500 157.878 20 -1 8 1
1993134N04160 1993 30 WP MM JACK 1993-05-16 06:00:00 NR 8.80000 157.900 main 1500 1500 O_____________ jtwc_wp WP051993 8.80000 157.900 20 -1 9 6
1993134N04160 1993 30 WP MM JACK 1993-05-16 09:00:00 NR 9.29999 157.970 main 1555 1555 P_____________ WP051993 9.29999 157.970 20 -1 11 18
1993134N04160 1993 30 WP MM JACK 1993-05-16 12:00:00 NR 9.82000 158.240 main 1615 1615 O__O__________ jtwc_wp WP051993 9.80000 158.100 20 -1 9.90000 158.800 TD 30 1000 11 29
1993134N04160 1993 30 WP MM JACK 1993-05-16 15:00:00 NR 10.2283 158.487 main 1670 1670 P__P__________ WP051993 10.2450 158.285 22 -1 10.1950 158.892 TD 30 1000 9 32
1993134N04160 1993 30 WP MM JACK 1993-05-16 18:00:00 NR 10.5571 158.714 main 1720 1720 O__O__________ jtwc_wp WP051993 10.6000 158.500 25 -1 10.5000 159.000 TD 30 1000 7 35
1993134N04160 1993 30 WP MM JACK 1993-05-16 21:00:00 NR 10.8262 158.921 main 1750 1750 P__P__________ WP051993 10.8375 158.708 25 -1 10.8150 159.135 TD 30 1000 6 38
1993134N04160 1993 30 WP MM JACK 1993-05-17 00:00:00 NR 11.0500 159.100 main 1790 1790 O__O__________ jtwc_wp WP051993 11.0000 158.900 25 -1 11.1000 159.300 TD 30 1000 5 40
1993134N04160 1993 30 WP MM JACK 1993-05-17 03:00:00 NR 11.2437 159.279 main 1810 1810 P__P__________ WP051993 11.1650 159.050 25 -1 11.3225 159.507 TD 30 1000 5 44
1993134N04160 1993 30 WP MM JACK 1993-05-17 06:00:00 NR 11.4000 159.450 main 1840 1840 O__O__________ jtwc_wp WP051993 11.3000 159.200 25 -1 11.5000 159.700 TD 30 1000 4 49
1993134N04160 1993 30 WP MM JACK 1993-05-17 09:00:00 NR 11.5325 159.619 main 1855 1855 P__P__________ WP051993 11.4075 159.415 25 -1 11.6575 159.823 TD 30 1000 4 50
1993134N04160 1993 30 WP MM JACK 1993-05-17 12:00:00 NR 11.6500 159.750 main 1885 1885 O__O__________ jtwc_wp WP051993 11.5000 159.600 25 -1 11.8000 159.900 TD 30 1000 3 40
1993134N04160 1993 30 WP MM JACK 1993-05-17 15:00:00 NR 11.7712 159.826 main 1895 1895 P__P__________ WP051993 11.5925 159.688 27 -1 11.9500 159.965 TD 32 997 3 21
1993134N04160 1993 30 WP MM JACK 1993-05-17 18:00:00 NR 11.9000 159.850 main 1910 1910 O__O__________ jtwc_wp WP051993 11.7000 159.700 30 -1 12.1000 160.000 TS 35 995 3 5
1993134N04160 1993 30 WP MM JACK 1993-05-17 21:00:00 NR 12.0500 159.848 main 1915 1915 P__P__________ WP051993 11.8500 159.673 30 -1 12.2500 160.022 TS 35 995 3 351
1993134N04160 1993 30 WP MM JACK 1993-05-18 00:00:00 NR 12.2000 159.800 main 1934 1934 O__O__________ jtwc_wp WP051993 12.0000 159.600 30 -1 12.4000 160.000 TS 35 995 3 340
1993134N04160 1993 30 WP MM JACK 1993-05-18 03:00:00 NR 12.3400 159.738 main 1939 1939 P__P__________ WP051993 12.1075 159.530 30 -1 12.5724 159.945 TS 32 997 3 322
1993134N04160 1993 30 WP MM JACK 1993-05-18 06:00:00 NR 12.4500 159.600 main 1953 1943 O__O__________ jtwc_wp WP051993 12.2000 159.400 30 -1 12.7000 159.800 TD 30 1000 4 295
1993134N04160 1993 30 WP MM JACK 1993-05-18 09:00:00 NR 12.5188 159.348 main 1939 1929 P__P__________ WP051993 12.3150 159.180 30 -1 12.7226 159.515 TD 27 1002 5 281
1993134N04160 1993 30 WP MM JACK 1993-05-18 12:00:00 NR 12.5500 159.050 main 1939 1923 O__O__________ jtwc_wp WP051993 12.4000 158.900 30 -1 12.7000 159.200 TD 25 1005 5 274
1993134N04160 1993 30 WP MM JACK 1993-05-18 15:00:00 NR 12.5537 158.792 main 1923 1903 P__P__________ WP051993 12.4075 158.600 30 -1 12.6999 158.985 TD 25 1005 5 270
1993134N04160 1993 30 WP MM JACK 1993-05-18 18:00:00 NR 12.5500 158.550 main 1913 1899 O__O__________ jtwc_wp WP051993 12.4000 158.300 30 -1 12.7000 158.800 TD 25 1005 5 273
1993134N04160 1993 30 WP MM JACK 1993-05-18 21:00:00 NR 12.5749 158.333 main 1899 1889 P__P__________ WP051993 12.4499 158.050 30 -1 12.6999 158.615 TD 27 1002 4 276
1993134N04160 1993 30 WP MM JACK 1993-05-19 00:00:00 NR 12.6000 158.100 main 1889 1876 O__O__________ jtwc_wp WP051993 12.5000 157.800 30 -1 12.7000 158.400 TD 30 1000 5 274
1993134N04160 1993 30 WP MM JACK 1993-05-19 03:00:00 NR 12.6075 157.819 main 1876 1863 P__P__________ WP051993 12.5075 157.507 30 -1 12.7075 158.130 TD 32 997 6 270
1993134N04160 1993 30 WP MM JACK 1993-05-19 06:00:00 NR 12.6000 157.500 main 1863 1850 O__O__________ jtwc_wp WP051993 12.5000 157.200 30 -1 12.7000 157.800 TS 35 995 6 267
1993134N04160 1993 30 WP MM JACK 1993-05-19 09:00:00 NR 12.5787 157.161 main 1850 1834 P__P__________ WP051993 12.4999 156.908 30 -1 12.6575 157.415 TS 35 995 7 266
1993134N04160 1993 30 WP MM JACK 1993-05-19 12:00:00 NR 12.5500 156.800 main 1834 1812 O__O__________ jtwc_wp WP051993 12.5000 156.600 30 -1 12.6000 157.000 TS 35 995 7 266
1993134N04160 1993 30 WP MM JACK 1993-05-19 15:00:00 NR 12.5287 156.433 main 1808 1797 P__P__________ WP051993 12.5000 156.258 30 -1 12.5574 156.608 TS 32 997 8 266
1993134N04160 1993 30 WP MM JACK 1993-05-19 18:00:00 NR 12.5000 156.029 main 1793 1783 O__O__________ jtwc_wp WP051993 12.5000 155.900 30 -1 12.5000 156.200 TD 30 1000 8 266
1993134N04160 1993 30 WP MM JACK 1993-05-19 21:00:00 NR 12.4800 155.630 main 1780 1768 P__P__________ WP051993 12.5149 155.565 32 -1 12.4102 155.760 TD 27 1002 8 267
1993134N04160 1993 30 WP MM JACK 1993-05-20 00:00:00 NR 12.4600 155.220 main 1768 1745 O__O__________ jtwc_wp WP051993 12.5000 155.200 35 0 12.3000 155.300 TD 25 1005 8 265
1993134N04160 1993 30 WP MM JACK 1993-05-20 03:00:00 NR 12.4000 154.772 main 1745 1722 P_____________ WP051993 12.4000 154.772 35 0 TD 9 260
1993134N04160 1993 30 WP MM JACK 1993-05-20 06:00:00 NR 12.3000 154.300 main 1722 1699 O_____________ jtwc_wp WP051993 12.3000 154.300 35 0 10 261
1993134N04160 1993 30 WP MM JACK 1993-05-20 09:00:00 NR 12.2475 153.792 main 1699 1695 P_____________ WP051993 12.2475 153.792 35 0 10 270
1993134N04160 1993 30 WP MM JACK 1993-05-20 12:00:00 NR 12.3000 153.300 main 1701 1698 O_____________ jtwc_wp WP051993 12.3000 153.300 35 0 9 285
1993134N04160 1993 30 WP MM JACK 1993-05-20 15:00:00 NR 12.4974 152.870 main 1717 1715 P_____________ WP051993 12.4974 152.870 35 0 9 303
1993134N04160 1993 30 WP MM JACK 1993-05-20 18:00:00 NR 12.8000 152.500 main 1745 1745 O_____________ jtwc_wp WP051993 12.8000 152.500 35 0 9 314
1993134N04160 1993 30 WP MM JACK 1993-05-20 21:00:00 NR 13.1349 152.192 main 1776 1776 P_____________ WP051993 13.1349 152.192 35 0 9 320
1993134N04160 1993 30 WP MM JACK 1993-05-21 00:00:00 NR 13.5000 151.900 main 1816 1816 O_____________ jtwc_wp WP051993 13.5000 151.900 35 0 9 319
1993134N04160 1993 30 WP MM JACK 1993-05-21 03:00:00 NR 13.8499 151.565 main 1840 1840 P_____________ WP051993 13.8499 151.565 32 -1 10 316
1993134N04160 1993 30 WP MM JACK 1993-05-21 06:00:00 NR 14.2000 151.200 main 1873 1873 O_____________ jtwc_wp WP051993 14.2000 151.200 30 -1 10 316
1993134N04160 1993 30 WP MM JACK 1993-05-21 09:00:00 NR 14.5874 150.823 main 1908 1908 P_____________ WP051993 14.5874 150.823 30 -1 10 312
1993134N04160 1993 30 WP MM JACK 1993-05-21 12:00:00 NR 14.9000 150.400 main 1932 1931 O_____________ jtwc_wp WP051993 14.9000 150.400 30 -1 10 298
1993134N04160 1993 30 WP MM JACK 1993-05-21 15:00:00 NR 15.0450 149.915 main 1935 1935 P_____________ WP051993 15.0450 149.915 27 -1 10 282
1993134N04160 1993 30 WP MM JACK 1993-05-21 18:00:00 NR 15.1000 149.400 main 1939 1934 O_____________ jtwc_wp WP051993 15.1000 149.400 25 -1 10 277
1993134N04160 1993 30 WP MM JACK 1993-05-21 21:00:00 NR 15.1648 148.907 main 1945 1941 P_____________ WP051993 15.1648 148.907 25 -1 10 276
1993134N04160 1993 30 WP MM JACK 1993-05-22 00:00:00 NR 15.2000 148.400 main 1941 1938 O_____________ jtwc_wp WP051993 15.2000 148.400 25 -1 10 273
1993134N04160 1993 30 WP MM JACK 1993-05-22 03:00:00 NR 15.2149 147.857 main 1938 1938 P_____________ WP051993 15.2149 147.857 25 -1 11 270
1993134N04160 1993 30 WP MM JACK 1993-05-22 06:00:00 NR 15.2000 147.300 main 1938 1938 O_____________ jtwc_wp WP051993 15.2000 147.300 25 -1 11 267
1993134N04160 1993 30 WP MM JACK 1993-05-22 09:00:00 NR 15.1575 146.735 main 1938 1926 P_____________ WP051993 15.1575 146.735 22 -1 11 265
1993134N04160 1993 30 WP MM JACK 1993-05-22 12:00:00 NR 15.1000 146.200 main 1927 1917 O_____________ jtwc_wp WP051993 15.1000 146.200 20 -1 10 263
1993134N04160 1993 30 WP MM JACK 1993-05-22 15:00:00 NR 15.0424 145.727 main 1918 1918 P_____________ WP051993 15.0424 145.727 20 -1 9 263
1993134N04160 1993 30 WP MM JACK 1993-05-22 18:00:00 NR 15.0000 145.300 main 1921 1921 O_____________ jtwc_wp WP051993 15.0000 145.300 20 -1 8 266
1993134N04160 1993 30 WP MM JACK 1993-05-22 21:00:00 NR 14.9923 144.900 main 1924 1924 P_____________ WP051993 14.9923 144.900 17 -1 8 270
1993134N04160 1993 30 WP MM JACK 1993-05-23 00:00:00 NR 15.0000 144.500 main 1929 1929 O_____________ jtwc_wp WP051993 15.0000 144.500 15 -1 8 271
1993134N04160 1993 30 WP MM JACK 1993-05-23 03:00:00 NR 15.0027 144.062 main 1935 1935 P_____________ WP051993 15.0027 144.062 15 -1 9 270
1993134N04160 1993 30 WP MM JACK 1993-05-23 06:00:00 NR 15.0000 143.600 main 1943 O_____________ jtwc_wp WP051993 15.0000 143.600 15 -1 9 270

デジタル台風データ・検索

IBTrACS Databaseについて

本データベースは、米国NOAAが公開する1842年以降の世界の熱帯低気圧のベストトラックデータアーカイブInternational Best Track Archive for Climate Stewardship (IBTrACS)を、ウェブで閲覧しやすい形式に変換したものです。

最終更新日:2021-10-21